sensor_id;sensor_type;location;lat;lon;timestamp;P1;durP1;ratioP1;P2;durP2;ratioP2
69750;SDS011;57335;52.288;6.056;2023-09-30T00:02:26;10.95;;;3.10;;
69750;SDS011;57335;52.288;6.056;2023-09-30T00:04:54;11.07;;;3.45;;
69750;SDS011;57335;52.288;6.056;2023-09-30T00:07:20;11.68;;;3.30;;
69750;SDS011;57335;52.288;6.056;2023-09-30T00:09:46;12.63;;;2.85;;
69750;SDS011;57335;52.288;6.056;2023-09-30T00:12:13;13.40;;;3.10;;
69750;SDS011;57335;52.288;6.056;2023-09-30T00:14:40;14.18;;;3.95;;
69750;SDS011;57335;52.288;6.056;2023-09-30T00:17:06;9.95;;;2.90;;
69750;SDS011;57335;52.288;6.056;2023-09-30T00:19:33;13.07;;;3.45;;
69750;SDS011;57335;52.288;6.056;2023-09-30T00:21:59;15.05;;;3.75;;
69750;SDS011;57335;52.288;6.056;2023-09-30T00:24:29;13.73;;;3.20;;
69750;SDS011;57335;52.288;6.056;2023-09-30T00:26:56;12.50;;;3.25;;
69750;SDS011;57335;52.288;6.056;2023-09-30T00:29:23;13.38;;;3.17;;
69750;SDS011;57335;52.288;6.056;2023-09-30T00:31:49;13.38;;;3.50;;
69750;SDS011;57335;52.288;6.056;2023-09-30T00:34:16;14.05;;;3.55;;
69750;SDS011;57335;52.288;6.056;2023-09-30T00:36:42;14.30;;;3.60;;
69750;SDS011;57335;52.288;6.056;2023-09-30T00:39:09;13.45;;;3.40;;
69750;SDS011;57335;52.288;6.056;2023-09-30T00:41:38;10.40;;;3.22;;
69750;SDS011;57335;52.288;6.056;2023-09-30T00:44:05;12.90;;;3.30;;
69750;SDS011;57335;52.288;6.056;2023-09-30T00:46:35;13.05;;;3.35;;
69750;SDS011;57335;52.288;6.056;2023-09-30T00:49:06;15.23;;;3.17;;
69750;SDS011;57335;52.288;6.056;2023-09-30T00:51:33;11.32;;;3.30;;
69750;SDS011;57335;52.288;6.056;2023-09-30T00:54:00;16.92;;;3.67;;
69750;SDS011;57335;52.288;6.056;2023-09-30T00:56:28;16.30;;;3.40;;
69750;SDS011;57335;52.288;6.056;2023-09-30T00:58:56;14.98;;;3.35;;
69750;SDS011;57335;52.288;6.056;2023-09-30T01:01:23;14.25;;;3.88;;
69750;SDS011;57335;52.288;6.056;2023-09-30T01:03:50;14.98;;;3.90;;
69750;SDS011;57335;52.288;6.056;2023-09-30T01:06:17;14.75;;;3.58;;
69750;SDS011;57335;52.288;6.056;2023-09-30T01:08:43;13.18;;;3.47;;
69750;SDS011;57335;52.288;6.056;2023-09-30T01:11:10;12.18;;;3.05;;
69750;SDS011;57335;52.288;6.056;2023-09-30T01:13:37;16.42;;;3.28;;
69750;SDS011;57335;52.288;6.056;2023-09-30T01:16:05;11.73;;;3.20;;
69750;SDS011;57335;52.288;6.056;2023-09-30T01:18:32;11.95;;;3.22;;
69750;SDS011;57335;52.288;6.056;2023-09-30T01:21:00;11.60;;;3.38;;
69750;SDS011;57335;52.288;6.056;2023-09-30T01:23:31;13.27;;;3.47;;
69750;SDS011;57335;52.288;6.056;2023-09-30T01:26:00;10.98;;;2.95;;
69750;SDS011;57335;52.288;6.056;2023-09-30T01:28:29;13.38;;;3.45;;
69750;SDS011;57335;52.288;6.056;2023-09-30T01:30:57;9.20;;;3.00;;
69750;SDS011;57335;52.288;6.056;2023-09-30T01:33:24;10.57;;;3.05;;
69750;SDS011;57335;52.288;6.056;2023-09-30T01:35:50;11.07;;;2.72;;
69750;SDS011;57335;52.288;6.056;2023-09-30T01:38:17;12.60;;;3.35;;
69750;SDS011;57335;52.288;6.056;2023-09-30T01:40:43;11.55;;;2.92;;
69750;SDS011;57335;52.288;6.056;2023-09-30T01:43:10;9.85;;;3.10;;
69750;SDS011;57335;52.288;6.056;2023-09-30T01:45:40;8.77;;;2.83;;
69750;SDS011;57335;52.288;6.056;2023-09-30T01:48:07;10.57;;;3.20;;
69750;SDS011;57335;52.288;6.056;2023-09-30T01:50:40;12.75;;;3.08;;
69750;SDS011;57335;52.288;6.056;2023-09-30T01:53:06;15.20;;;3.65;;
69750;SDS011;57335;52.288;6.056;2023-09-30T01:55:33;12.38;;;3.45;;
69750;SDS011;57335;52.288;6.056;2023-09-30T01:58:00;17.60;;;3.92;;
69750;SDS011;57335;52.288;6.056;2023-09-30T02:00:27;16.73;;;4.50;;
69750;SDS011;57335;52.288;6.056;2023-09-30T02:02:55;14.85;;;4.40;;
69750;SDS011;57335;52.288;6.056;2023-09-30T02:05:22;16.27;;;4.32;;
69750;SDS011;57335;52.288;6.056;2023-09-30T02:07:49;13.05;;;4.15;;
69750;SDS011;57335;52.288;6.056;2023-09-30T02:10:17;16.55;;;4.45;;
69750;SDS011;57335;52.288;6.056;2023-09-30T02:12:46;13.95;;;3.70;;
69750;SDS011;57335;52.288;6.056;2023-09-30T02:15:13;15.15;;;4.13;;
69750;SDS011;57335;52.288;6.056;2023-09-30T02:17:40;14.05;;;3.88;;
69750;SDS011;57335;52.288;6.056;2023-09-30T02:20:12;14.95;;;3.92;;
69750;SDS011;57335;52.288;6.056;2023-09-30T02:22:42;15.60;;;4.32;;
69750;SDS011;57335;52.288;6.056;2023-09-30T02:25:13;13.82;;;4.00;;
69750;SDS011;57335;52.288;6.056;2023-09-30T02:27:40;16.90;;;4.00;;
69750;SDS011;57335;52.288;6.056;2023-09-30T02:30:08;14.85;;;4.18;;
69750;SDS011;57335;52.288;6.056;2023-09-30T02:32:38;14.15;;;3.90;;
69750;SDS011;57335;52.288;6.056;2023-09-30T02:35:05;14.10;;;4.32;;
69750;SDS011;57335;52.288;6.056;2023-09-30T02:37:32;15.40;;;4.35;;
69750;SDS011;57335;52.288;6.056;2023-09-30T02:40:03;12.85;;;4.00;;
69750;SDS011;57335;52.288;6.056;2023-09-30T02:42:37;19.50;;;4.95;;
69750;SDS011;57335;52.288;6.056;2023-09-30T02:45:04;18.88;;;5.80;;
69750;SDS011;57335;52.288;6.056;2023-09-30T02:47:32;20.13;;;5.63;;
69750;SDS011;57335;52.288;6.056;2023-09-30T02:49:59;18.02;;;5.63;;
69750;SDS011;57335;52.288;6.056;2023-09-30T02:52:25;22.58;;;5.80;;
69750;SDS011;57335;52.288;6.056;2023-09-30T02:54:52;16.98;;;4.88;;
69750;SDS011;57335;52.288;6.056;2023-09-30T02:57:18;15.13;;;4.15;;
69750;SDS011;57335;52.288;6.056;2023-09-30T02:59:45;11.18;;;4.10;;
69750;SDS011;57335;52.288;6.056;2023-09-30T03:02:12;19.13;;;4.35;;
69750;SDS011;57335;52.288;6.056;2023-09-30T03:04:39;12.52;;;3.90;;
69750;SDS011;57335;52.288;6.056;2023-09-30T03:07:05;18.13;;;5.00;;
69750;SDS011;57335;52.288;6.056;2023-09-30T03:09:32;15.07;;;4.75;;
69750;SDS011;57335;52.288;6.056;2023-09-30T03:11:58;19.23;;;5.47;;
69750;SDS011;57335;52.288;6.056;2023-09-30T03:14:25;17.05;;;5.70;;
69750;SDS011;57335;52.288;6.056;2023-09-30T03:16:51;20.08;;;6.28;;
69750;SDS011;57335;52.288;6.056;2023-09-30T03:19:18;17.15;;;5.43;;
69750;SDS011;57335;52.288;6.056;2023-09-30T03:21:45;22.60;;;6.30;;
69750;SDS011;57335;52.288;6.056;2023-09-30T03:24:12;20.95;;;6.10;;
69750;SDS011;57335;52.288;6.056;2023-09-30T03:26:38;22.45;;;6.75;;
69750;SDS011;57335;52.288;6.056;2023-09-30T03:29:07;23.42;;;6.45;;
69750;SDS011;57335;52.288;6.056;2023-09-30T03:31:35;19.80;;;6.72;;
69750;SDS011;57335;52.288;6.056;2023-09-30T03:34:02;19.10;;;6.30;;
69750;SDS011;57335;52.288;6.056;2023-09-30T03:36:30;21.92;;;6.32;;
69750;SDS011;57335;52.288;6.056;2023-09-30T03:38:57;22.67;;;6.90;;
69750;SDS011;57335;52.288;6.056;2023-09-30T03:41:26;22.13;;;6.53;;
69750;SDS011;57335;52.288;6.056;2023-09-30T03:43:52;18.15;;;6.43;;
69750;SDS011;57335;52.288;6.056;2023-09-30T03:46:20;24.95;;;6.40;;
69750;SDS011;57335;52.288;6.056;2023-09-30T03:48:46;18.80;;;6.10;;
69750;SDS011;57335;52.288;6.056;2023-09-30T03:51:13;21.10;;;6.95;;
69750;SDS011;57335;52.288;6.056;2023-09-30T03:53:41;19.55;;;6.03;;
69750;SDS011;57335;52.288;6.056;2023-09-30T03:56:08;20.23;;;6.70;;
69750;SDS011;57335;52.288;6.056;2023-09-30T03:58:38;23.17;;;6.30;;
69750;SDS011;57335;52.288;6.056;2023-09-30T04:01:06;21.52;;;6.68;;
69750;SDS011;57335;52.288;6.056;2023-09-30T04:03:34;22.50;;;6.90;;
69750;SDS011;57335;52.288;6.056;2023-09-30T04:06:01;30.05;;;8.80;;
69750;SDS011;57335;52.288;6.056;2023-09-30T04:08:30;28.30;;;8.07;;
69750;SDS011;57335;52.288;6.056;2023-09-30T04:10:59;24.70;;;7.70;;
69750;SDS011;57335;52.288;6.056;2023-09-30T04:13:26;24.85;;;7.43;;
69750;SDS011;57335;52.288;6.056;2023-09-30T04:15:55;24.38;;;7.40;;
69750;SDS011;57335;52.288;6.056;2023-09-30T04:18:24;23.25;;;7.07;;
69750;SDS011;57335;52.288;6.056;2023-09-30T04:20:52;22.27;;;6.63;;
69750;SDS011;57335;52.288;6.056;2023-09-30T04:23:19;23.85;;;7.47;;
69750;SDS011;57335;52.288;6.056;2023-09-30T04:25:46;21.58;;;7.70;;
69750;SDS011;57335;52.288;6.056;2023-09-30T04:28:13;24.17;;;7.07;;
69750;SDS011;57335;52.288;6.056;2023-09-30T04:30:40;22.70;;;7.03;;
69750;SDS011;57335;52.288;6.056;2023-09-30T04:33:07;27.15;;;7.30;;
69750;SDS011;57335;52.288;6.056;2023-09-30T04:35:34;24.30;;;7.40;;
69750;SDS011;57335;52.288;6.056;2023-09-30T04:38:01;25.15;;;7.75;;
69750;SDS011;57335;52.288;6.056;2023-09-30T04:40:30;26.45;;;7.80;;
69750;SDS011;57335;52.288;6.056;2023-09-30T04:42:57;27.48;;;8.13;;
69750;SDS011;57335;52.288;6.056;2023-09-30T04:45:26;27.40;;;8.18;;
69750;SDS011;57335;52.288;6.056;2023-09-30T04:47:53;24.65;;;7.55;;
69750;SDS011;57335;52.288;6.056;2023-09-30T04:50:22;25.65;;;9.25;;
69750;SDS011;57335;52.288;6.056;2023-09-30T04:52:50;28.02;;;8.73;;
69750;SDS011;57335;52.288;6.056;2023-09-30T04:55:17;28.73;;;8.88;;
69750;SDS011;57335;52.288;6.056;2023-09-30T04:57:45;29.58;;;8.73;;
69750;SDS011;57335;52.288;6.056;2023-09-30T05:00:14;28.02;;;9.10;;
69750;SDS011;57335;52.288;6.056;2023-09-30T05:02:43;29.33;;;9.15;;
69750;SDS011;57335;52.288;6.056;2023-09-30T05:05:11;35.15;;;10.18;;
69750;SDS011;57335;52.288;6.056;2023-09-30T05:07:38;29.77;;;9.52;;
69750;SDS011;57335;52.288;6.056;2023-09-30T05:10:05;28.70;;;9.85;;
69750;SDS011;57335;52.288;6.056;2023-09-30T05:12:33;31.60;;;10.88;;
69750;SDS011;57335;52.288;6.056;2023-09-30T05:15:00;34.72;;;9.98;;
69750;SDS011;57335;52.288;6.056;2023-09-30T05:17:28;33.35;;;9.68;;
69750;SDS011;57335;52.288;6.056;2023-09-30T05:19:58;35.22;;;9.57;;
69750;SDS011;57335;52.288;6.056;2023-09-30T05:22:25;27.50;;;9.60;;
69750;SDS011;57335;52.288;6.056;2023-09-30T05:24:51;36.75;;;10.00;;
69750;SDS011;57335;52.288;6.056;2023-09-30T05:27:18;30.65;;;9.63;;
69750;SDS011;57335;52.288;6.056;2023-09-30T05:29:45;34.20;;;10.80;;
69750;SDS011;57335;52.288;6.056;2023-09-30T05:32:12;32.03;;;9.93;;
69750;SDS011;57335;52.288;6.056;2023-09-30T05:34:39;38.35;;;10.85;;
69750;SDS011;57335;52.288;6.056;2023-09-30T05:37:06;35.63;;;10.15;;
69750;SDS011;57335;52.288;6.056;2023-09-30T05:39:32;37.05;;;11.15;;
69750;SDS011;57335;52.288;6.056;2023-09-30T05:41:59;38.17;;;11.40;;
69750;SDS011;57335;52.288;6.056;2023-09-30T05:44:25;44.40;;;11.57;;
69750;SDS011;57335;52.288;6.056;2023-09-30T05:46:55;39.65;;;12.23;;
69750;SDS011;57335;52.288;6.056;2023-09-30T05:49:21;27.45;;;9.68;;
69750;SDS011;57335;52.288;6.056;2023-09-30T05:51:48;31.20;;;10.07;;
69750;SDS011;57335;52.288;6.056;2023-09-30T05:54:14;27.77;;;9.63;;
69750;SDS011;57335;52.288;6.056;2023-09-30T05:56:41;34.95;;;11.70;;
69750;SDS011;57335;52.288;6.056;2023-09-30T05:59:09;29.08;;;10.55;;
69750;SDS011;57335;52.288;6.056;2023-09-30T06:01:35;38.05;;;11.25;;
69750;SDS011;57335;52.288;6.056;2023-09-30T06:04:02;33.30;;;10.88;;
69750;SDS011;57335;52.288;6.056;2023-09-30T06:06:30;28.30;;;9.88;;
69750;SDS011;57335;52.288;6.056;2023-09-30T06:08:56;30.63;;;10.80;;
69750;SDS011;57335;52.288;6.056;2023-09-30T06:11:26;31.33;;;11.38;;
69750;SDS011;57335;52.288;6.056;2023-09-30T06:13:55;28.42;;;10.52;;
69750;SDS011;57335;52.288;6.056;2023-09-30T06:16:25;31.52;;;10.45;;
69750;SDS011;57335;52.288;6.056;2023-09-30T06:18:53;27.33;;;10.13;;
69750;SDS011;57335;52.288;6.056;2023-09-30T06:21:20;26.27;;;10.63;;
69750;SDS011;57335;52.288;6.056;2023-09-30T06:23:48;28.65;;;10.73;;
69750;SDS011;57335;52.288;6.056;2023-09-30T06:26:14;24.30;;;10.55;;
69750;SDS011;57335;52.288;6.056;2023-09-30T06:28:44;26.38;;;10.55;;
69750;SDS011;57335;52.288;6.056;2023-09-30T06:31:11;23.52;;;9.65;;
69750;SDS011;57335;52.288;6.056;2023-09-30T06:33:38;22.30;;;9.88;;
69750;SDS011;57335;52.288;6.056;2023-09-30T06:36:09;19.88;;;9.65;;
69750;SDS011;57335;52.288;6.056;2023-09-30T06:38:36;20.77;;;9.15;;
69750;SDS011;57335;52.288;6.056;2023-09-30T06:41:03;20.55;;;9.13;;
69750;SDS011;57335;52.288;6.056;2023-09-30T06:43:32;18.48;;;8.48;;
69750;SDS011;57335;52.288;6.056;2023-09-30T06:45:59;21.77;;;8.90;;
69750;SDS011;57335;52.288;6.056;2023-09-30T06:48:26;19.27;;;8.60;;
69750;SDS011;57335;52.288;6.056;2023-09-30T06:50:53;19.63;;;8.82;;
69750;SDS011;57335;52.288;6.056;2023-09-30T06:53:20;18.63;;;8.98;;
69750;SDS011;57335;52.288;6.056;2023-09-30T06:55:49;19.08;;;8.52;;
69750;SDS011;57335;52.288;6.056;2023-09-30T06:58:17;18.50;;;9.30;;
69750;SDS011;57335;52.288;6.056;2023-09-30T07:00:49;21.10;;;9.45;;
69750;SDS011;57335;52.288;6.056;2023-09-30T07:03:17;17.17;;;8.68;;
69750;SDS011;57335;52.288;6.056;2023-09-30T07:05:49;18.42;;;9.38;;
69750;SDS011;57335;52.288;6.056;2023-09-30T07:08:16;18.02;;;9.20;;
69750;SDS011;57335;52.288;6.056;2023-09-30T07:10:44;20.38;;;9.95;;
69750;SDS011;57335;52.288;6.056;2023-09-30T07:13:12;17.80;;;9.55;;
69750;SDS011;57335;52.288;6.056;2023-09-30T07:15:38;19.00;;;9.45;;
69750;SDS011;57335;52.288;6.056;2023-09-30T07:18:05;19.58;;;9.50;;
69750;SDS011;57335;52.288;6.056;2023-09-30T07:20:31;19.70;;;10.20;;
69750;SDS011;57335;52.288;6.056;2023-09-30T07:22:59;21.05;;;9.73;;
69750;SDS011;57335;52.288;6.056;2023-09-30T07:25:44;22.33;;;10.50;;
69750;SDS011;57335;52.288;6.056;2023-09-30T07:28:11;20.17;;;10.32;;
69750;SDS011;57335;52.288;6.056;2023-09-30T07:30:39;19.80;;;10.13;;
69750;SDS011;57335;52.288;6.056;2023-09-30T07:33:06;22.02;;;11.25;;
69750;SDS011;57335;52.288;6.056;2023-09-30T07:35:33;19.48;;;10.30;;
69750;SDS011;57335;52.288;6.056;2023-09-30T07:38:00;20.00;;;10.73;;
69750;SDS011;57335;52.288;6.056;2023-09-30T07:40:26;17.55;;;10.15;;
69750;SDS011;57335;52.288;6.056;2023-09-30T07:42:54;20.40;;;10.23;;
69750;SDS011;57335;52.288;6.056;2023-09-30T07:45:21;19.17;;;10.32;;
69750;SDS011;57335;52.288;6.056;2023-09-30T07:47:48;18.33;;;10.20;;
69750;SDS011;57335;52.288;6.056;2023-09-30T07:50:15;19.13;;;9.65;;
69750;SDS011;57335;52.288;6.056;2023-09-30T07:52:42;16.65;;;9.57;;
69750;SDS011;57335;52.288;6.056;2023-09-30T07:55:08;16.85;;;9.20;;
69750;SDS011;57335;52.288;6.056;2023-09-30T07:57:36;17.02;;;9.63;;
69750;SDS011;57335;52.288;6.056;2023-09-30T08:00:03;18.90;;;10.10;;
69750;SDS011;57335;52.288;6.056;2023-09-30T08:02:35;18.25;;;9.73;;
69750;SDS011;57335;52.288;6.056;2023-09-30T08:05:03;19.08;;;9.68;;
69750;SDS011;57335;52.288;6.056;2023-09-30T08:07:32;15.85;;;8.82;;
69750;SDS011;57335;52.288;6.056;2023-09-30T08:10:00;17.95;;;9.85;;
69750;SDS011;57335;52.288;6.056;2023-09-30T08:12:27;16.90;;;10.20;;
69750;SDS011;57335;52.288;6.056;2023-09-30T08:14:53;16.85;;;9.70;;
69750;SDS011;57335;52.288;6.056;2023-09-30T08:17:20;17.00;;;8.52;;
69750;SDS011;57335;52.288;6.056;2023-09-30T08:19:46;17.20;;;8.70;;
69750;SDS011;57335;52.288;6.056;2023-09-30T08:22:14;14.95;;;8.32;;
69750;SDS011;57335;52.288;6.056;2023-09-30T08:24:40;16.10;;;8.48;;
69750;SDS011;57335;52.288;6.056;2023-09-30T08:27:07;15.48;;;8.63;;
69750;SDS011;57335;52.288;6.056;2023-09-30T08:29:34;16.67;;;8.30;;
69750;SDS011;57335;52.288;6.056;2023-09-30T08:32:04;14.52;;;8.10;;
69750;SDS011;57335;52.288;6.056;2023-09-30T08:34:30;15.23;;;8.32;;
69750;SDS011;57335;52.288;6.056;2023-09-30T08:36:57;16.15;;;8.20;;
69750;SDS011;57335;52.288;6.056;2023-09-30T08:39:25;17.35;;;9.63;;
69750;SDS011;57335;52.288;6.056;2023-09-30T08:41:51;13.63;;;8.10;;
69750;SDS011;57335;52.288;6.056;2023-09-30T08:44:21;13.93;;;7.72;;
69750;SDS011;57335;52.288;6.056;2023-09-30T08:46:47;15.93;;;7.65;;
69750;SDS011;57335;52.288;6.056;2023-09-30T08:49:15;15.65;;;7.47;;
69750;SDS011;57335;52.288;6.056;2023-09-30T08:51:42;14.18;;;6.90;;
69750;SDS011;57335;52.288;6.056;2023-09-30T08:54:09;14.98;;;7.05;;
69750;SDS011;57335;52.288;6.056;2023-09-30T08:56:36;14.77;;;6.75;;
69750;SDS011;57335;52.288;6.056;2023-09-30T08:59:06;14.85;;;6.72;;
69750;SDS011;57335;52.288;6.056;2023-09-30T09:01:32;13.55;;;6.55;;
69750;SDS011;57335;52.288;6.056;2023-09-30T09:04:00;13.02;;;6.38;;
69750;SDS011;57335;52.288;6.056;2023-09-30T09:06:27;12.20;;;6.35;;
69750;SDS011;57335;52.288;6.056;2023-09-30T09:08:53;11.25;;;5.70;;
69750;SDS011;57335;52.288;6.056;2023-09-30T09:11:20;13.95;;;5.47;;
69750;SDS011;57335;52.288;6.056;2023-09-30T09:16:19;12.32;;;5.00;;
69750;SDS011;57335;52.288;6.056;2023-09-30T09:18:46;12.57;;;4.70;;
69750;SDS011;57335;52.288;6.056;2023-09-30T09:21:15;11.10;;;4.82;;
69750;SDS011;57335;52.288;6.056;2023-09-30T09:23:44;11.35;;;4.95;;
69750;SDS011;57335;52.288;6.056;2023-09-30T09:26:12;11.50;;;4.22;;
69750;SDS011;57335;52.288;6.056;2023-09-30T09:28:50;12.48;;;4.38;;
69750;SDS011;57335;52.288;6.056;2023-09-30T09:31:24;13.00;;;3.95;;
69750;SDS011;57335;52.288;6.056;2023-09-30T09:33:53;11.18;;;3.83;;
69750;SDS011;57335;52.288;6.056;2023-09-30T09:36:20;11.15;;;3.58;;
69750;SDS011;57335;52.288;6.056;2023-09-30T09:38:50;11.18;;;3.55;;
69750;SDS011;57335;52.288;6.056;2023-09-30T09:41:20;11.48;;;3.50;;
69750;SDS011;57335;52.288;6.056;2023-09-30T09:43:49;12.02;;;3.75;;
69750;SDS011;57335;52.288;6.056;2023-09-30T09:46:19;11.52;;;3.45;;
69750;SDS011;57335;52.288;6.056;2023-09-30T09:48:46;10.95;;;3.08;;
69750;SDS011;57335;52.288;6.056;2023-09-30T09:51:13;9.38;;;2.60;;
69750;SDS011;57335;52.288;6.056;2023-09-30T09:53:41;9.68;;;2.40;;
69750;SDS011;57335;52.288;6.056;2023-09-30T09:56:08;10.10;;;2.60;;
69750;SDS011;57335;52.288;6.056;2023-09-30T09:58:39;6.82;;;2.10;;
69750;SDS011;57335;52.288;6.056;2023-09-30T10:01:07;9.68;;;1.90;;
69750;SDS011;57335;52.288;6.056;2023-09-30T10:03:37;9.95;;;2.00;;
69750;SDS011;57335;52.288;6.056;2023-09-30T10:06:05;10.02;;;2.50;;
69750;SDS011;57335;52.288;6.056;2023-09-30T10:08:40;8.02;;;1.80;;
69750;SDS011;57335;52.288;6.056;2023-09-30T10:11:10;9.07;;;2.20;;
69750;SDS011;57335;52.288;6.056;2023-09-30T10:19:08;9.07;;;2.10;;
69750;SDS011;57335;52.288;6.056;2023-09-30T10:21:36;10.55;;;2.15;;
69750;SDS011;57335;52.288;6.056;2023-09-30T10:24:27;7.47;;;1.88;;
69750;SDS011;57335;52.288;6.056;2023-09-30T10:27:27;9.25;;;2.38;;
69750;SDS011;57335;52.288;6.056;2023-09-30T10:29:53;9.30;;;1.90;;
69750;SDS011;57335;52.288;6.056;2023-09-30T10:38:36;9.70;;;2.00;;
69750;SDS011;57335;52.288;6.056;2023-09-30T10:41:04;9.38;;;2.00;;
69750;SDS011;57335;52.288;6.056;2023-09-30T10:43:32;6.28;;;1.73;;
69750;SDS011;57335;52.288;6.056;2023-09-30T10:46:00;13.02;;;2.40;;
69750;SDS011;57335;52.288;6.056;2023-09-30T10:50:59;10.52;;;1.80;;
69750;SDS011;57335;52.288;6.056;2023-09-30T10:53:28;7.88;;;2.05;;
69750;SDS011;57335;52.288;6.056;2023-09-30T10:55:55;8.98;;;2.33;;
69750;SDS011;57335;52.288;6.056;2023-09-30T10:58:39;10.02;;;2.20;;
69750;SDS011;57335;52.288;6.056;2023-09-30T11:01:12;8.88;;;2.45;;
69750;SDS011;57335;52.288;6.056;2023-09-30T11:03:40;8.52;;;2.42;;
69750;SDS011;57335;52.288;6.056;2023-09-30T11:06:10;8.32;;;2.10;;
69750;SDS011;57335;52.288;6.056;2023-09-30T11:08:41;10.10;;;2.10;;
69750;SDS011;57335;52.288;6.056;2023-09-30T11:11:12;9.95;;;1.90;;
69750;SDS011;57335;52.288;6.056;2023-09-30T11:13:40;8.75;;;1.98;;
69750;SDS011;57335;52.288;6.056;2023-09-30T11:16:07;8.65;;;2.10;;
69750;SDS011;57335;52.288;6.056;2023-09-30T11:18:35;8.68;;;2.08;;
69750;SDS011;57335;52.288;6.056;2023-09-30T11:23:32;9.52;;;2.17;;
69750;SDS011;57335;52.288;6.056;2023-09-30T11:25:59;6.72;;;1.90;;
69750;SDS011;57335;52.288;6.056;2023-09-30T11:28:34;8.00;;;2.10;;
69750;SDS011;57335;52.288;6.056;2023-09-30T11:31:11;9.50;;;2.30;;
69750;SDS011;57335;52.288;6.056;2023-09-30T11:33:55;9.15;;;2.00;;
69750;SDS011;57335;52.288;6.056;2023-09-30T11:36:24;8.85;;;2.25;;
69750;SDS011;57335;52.288;6.056;2023-09-30T11:38:50;7.30;;;2.20;;
69750;SDS011;57335;52.288;6.056;2023-09-30T11:41:21;7.05;;;1.90;;
69750;SDS011;57335;52.288;6.056;2023-09-30T11:44:01;8.55;;;2.35;;
69750;SDS011;57335;52.288;6.056;2023-09-30T11:46:55;10.77;;;2.35;;
69750;SDS011;57335;52.288;6.056;2023-09-30T11:52:06;7.65;;;2.13;;
69750;SDS011;57335;52.288;6.056;2023-09-30T11:54:35;10.65;;;2.80;;
69750;SDS011;57335;52.288;6.056;2023-09-30T11:57:16;6.80;;;2.10;;
69750;SDS011;57335;52.288;6.056;2023-09-30T11:59:45;9.77;;;2.40;;
69750;SDS011;57335;52.288;6.056;2023-09-30T12:02:12;9.32;;;2.40;;
69750;SDS011;57335;52.288;6.056;2023-09-30T12:04:48;9.55;;;2.53;;
69750;SDS011;57335;52.288;6.056;2023-09-30T12:07:15;8.88;;;2.58;;
69750;SDS011;57335;52.288;6.056;2023-09-30T12:09:42;9.10;;;2.22;;
69750;SDS011;57335;52.288;6.056;2023-09-30T12:12:09;13.23;;;2.30;;
69750;SDS011;57335;52.288;6.056;2023-09-30T12:14:37;12.57;;;2.72;;
69750;SDS011;57335;52.288;6.056;2023-09-30T12:17:04;8.90;;;2.72;;
69750;SDS011;57335;52.288;6.056;2023-09-30T12:19:31;12.13;;;2.67;;
69750;SDS011;57335;52.288;6.056;2023-09-30T12:21:57;9.73;;;2.33;;
69750;SDS011;57335;52.288;6.056;2023-09-30T12:24:24;8.82;;;2.33;;
69750;SDS011;57335;52.288;6.056;2023-09-30T12:26:53;9.40;;;2.38;;
69750;SDS011;57335;52.288;6.056;2023-09-30T12:29:21;7.90;;;2.10;;
69750;SDS011;57335;52.288;6.056;2023-09-30T12:31:52;8.90;;;2.20;;
69750;SDS011;57335;52.288;6.056;2023-09-30T12:34:21;7.40;;;1.90;;
69750;SDS011;57335;52.288;6.056;2023-09-30T12:36:52;9.18;;;2.22;;
69750;SDS011;57335;52.288;6.056;2023-09-30T12:39:19;7.93;;;2.38;;
69750;SDS011;57335;52.288;6.056;2023-09-30T12:41:51;9.02;;;2.22;;
69750;SDS011;57335;52.288;6.056;2023-09-30T12:44:17;8.80;;;2.13;;
69750;SDS011;57335;52.288;6.056;2023-09-30T12:46:45;9.95;;;2.92;;
69750;SDS011;57335;52.288;6.056;2023-09-30T12:49:11;8.93;;;2.30;;
69750;SDS011;57335;52.288;6.056;2023-09-30T12:51:38;9.30;;;2.47;;
69750;SDS011;57335;52.288;6.056;2023-09-30T12:54:04;9.40;;;2.65;;
69750;SDS011;57335;52.288;6.056;2023-09-30T12:56:31;8.40;;;2.80;;
69750;SDS011;57335;52.288;6.056;2023-09-30T12:58:58;10.13;;;2.53;;
69750;SDS011;57335;52.288;6.056;2023-09-30T13:01:25;10.45;;;2.53;;
69750;SDS011;57335;52.288;6.056;2023-09-30T13:03:52;8.75;;;2.60;;
69750;SDS011;57335;52.288;6.056;2023-09-30T13:06:19;10.15;;;2.50;;
69750;SDS011;57335;52.288;6.056;2023-09-30T13:08:46;8.50;;;2.17;;
69750;SDS011;57335;52.288;6.056;2023-09-30T13:11:13;8.18;;;2.30;;
69750;SDS011;57335;52.288;6.056;2023-09-30T13:13:40;7.32;;;1.95;;
69750;SDS011;57335;52.288;6.056;2023-09-30T13:16:09;10.70;;;2.67;;
69750;SDS011;57335;52.288;6.056;2023-09-30T13:18:38;10.93;;;2.60;;
69750;SDS011;57335;52.288;6.056;2023-09-30T13:21:04;8.70;;;2.30;;
69750;SDS011;57335;52.288;6.056;2023-09-30T13:23:34;11.07;;;2.65;;
69750;SDS011;57335;52.288;6.056;2023-09-30T13:26:01;9.02;;;2.70;;
69750;SDS011;57335;52.288;6.056;2023-09-30T13:28:28;11.98;;;2.85;;
69750;SDS011;57335;52.288;6.056;2023-09-30T13:30:54;8.52;;;2.20;;
69750;SDS011;57335;52.288;6.056;2023-09-30T13:33:22;8.45;;;2.42;;
69750;SDS011;57335;52.288;6.056;2023-09-30T13:35:48;8.15;;;2.10;;
69750;SDS011;57335;52.288;6.056;2023-09-30T13:38:15;7.95;;;2.05;;
69750;SDS011;57335;52.288;6.056;2023-09-30T13:40:42;9.80;;;2.30;;
69750;SDS011;57335;52.288;6.056;2023-09-30T13:43:09;9.65;;;2.40;;
69750;SDS011;57335;52.288;6.056;2023-09-30T13:45:35;7.70;;;2.42;;
69750;SDS011;57335;52.288;6.056;2023-09-30T13:48:03;12.07;;;2.75;;
69750;SDS011;57335;52.288;6.056;2023-09-30T13:50:31;9.93;;;2.40;;
69750;SDS011;57335;52.288;6.056;2023-09-30T13:52:57;8.95;;;2.58;;
69750;SDS011;57335;52.288;6.056;2023-09-30T13:55:27;9.15;;;2.40;;
69750;SDS011;57335;52.288;6.056;2023-09-30T13:57:53;11.95;;;2.80;;
69750;SDS011;57335;52.288;6.056;2023-09-30T14:00:20;9.02;;;2.83;;
69750;SDS011;57335;52.288;6.056;2023-09-30T14:02:47;9.85;;;2.55;;
69750;SDS011;57335;52.288;6.056;2023-09-30T14:05:15;8.70;;;2.30;;
69750;SDS011;57335;52.288;6.056;2023-09-30T14:07:41;11.20;;;2.42;;
69750;SDS011;57335;52.288;6.056;2023-09-30T14:10:09;8.55;;;2.20;;
69750;SDS011;57335;52.288;6.056;2023-09-30T14:12:39;7.80;;;2.10;;
69750;SDS011;57335;52.288;6.056;2023-09-30T14:15:06;9.18;;;2.25;;
69750;SDS011;57335;52.288;6.056;2023-09-30T14:17:33;8.18;;;2.20;;
69750;SDS011;57335;52.288;6.056;2023-09-30T14:20:01;8.57;;;2.30;;
69750;SDS011;57335;52.288;6.056;2023-09-30T14:22:32;10.73;;;2.45;;
69750;SDS011;57335;52.288;6.056;2023-09-30T14:24:58;10.90;;;2.50;;
69750;SDS011;57335;52.288;6.056;2023-09-30T14:27:25;9.77;;;2.60;;
69750;SDS011;57335;52.288;6.056;2023-09-30T14:29:52;9.68;;;2.50;;
69750;SDS011;57335;52.288;6.056;2023-09-30T14:32:19;10.68;;;3.17;;
69750;SDS011;57335;52.288;6.056;2023-09-30T14:34:46;10.20;;;2.38;;
69750;SDS011;57335;52.288;6.056;2023-09-30T14:37:12;12.48;;;2.58;;
69750;SDS011;57335;52.288;6.056;2023-09-30T14:39:39;12.95;;;2.95;;
69750;SDS011;57335;52.288;6.056;2023-09-30T14:42:06;10.18;;;2.80;;
69750;SDS011;57335;52.288;6.056;2023-09-30T14:44:32;9.38;;;2.47;;
69750;SDS011;57335;52.288;6.056;2023-09-30T14:46:59;9.68;;;2.50;;
69750;SDS011;57335;52.288;6.056;2023-09-30T14:49:26;11.43;;;2.85;;
69750;SDS011;57335;52.288;6.056;2023-09-30T14:51:53;12.75;;;3.08;;
69750;SDS011;57335;52.288;6.056;2023-09-30T14:54:19;10.00;;;2.47;;
69750;SDS011;57335;52.288;6.056;2023-09-30T14:56:46;11.70;;;2.90;;
69750;SDS011;57335;52.288;6.056;2023-09-30T14:59:13;10.65;;;3.10;;
69750;SDS011;57335;52.288;6.056;2023-09-30T15:01:39;11.55;;;2.92;;
69750;SDS011;57335;52.288;6.056;2023-09-30T15:04:06;9.73;;;3.00;;